Time;durP1;ratioP1;P1;durP2;ratioP2;P2;SDS_P1;SDS_P2;PMS_P1;PMS_P2;Temp;Humidity;BMP_temperature;BMP_pressure;BME280_temperature;BME280_humidity;BME280_pressure;Samples;Min_cycle;Max_cycle;Signal;HPM_P1;HPM_P2
2023/01/15 00:01:28;;;;;;;7.53;1.70;;;6.00;99.90;;;;;;5112849;28;20476;-90
2023/01/15 00:03:57;;;;;;;6.10;1.15;;;6.00;99.90;;;;;;5129393;28;20040;-89
2023/01/15 00:06:27;;;;;;;6.85;1.10;;;6.00;99.90;;;;;;5112610;28;20046;-90
2023/01/15 00:08:54;;;;;;;10.93;1.45;;;6.00;99.90;;;;;;5096532;28;20065;-90
2023/01/15 00:11:21;;;;;;;11.40;1.60;;;6.00;99.90;;;;;;5112662;28;20488;-90
2023/01/15 00:13:48;;;;;;;6.53;1.15;;;6.00;99.90;;;;;;5112282;28;20462;-89
2023/01/15 00:16:18;;;;;;;10.48;1.52;;;6.00;99.90;;;;;;5111713;28;20244;-89
2023/01/15 00:18:58;;;;;;;8.25;1.55;;;6.00;99.90;;;;;;5129142;28;20046;-90
2023/01/15 00:21:27;;;;;;;11.93;1.50;;;6.00;99.90;;;;;;5112234;28;20043;-90
2023/01/15 00:29:26;;;;;;;8.15;1.70;;;5.90;99.90;;;;;;5129235;28;20048;-90
2023/01/15 00:31:58;;;;;;;7.25;1.30;;;5.90;99.90;;;;;;5112333;28;20071;-89
2023/01/15 00:34:25;;;;;;;11.23;1.80;;;5.90;99.90;;;;;;5112384;28;20071;-90
2023/01/15 00:36:52;;;;;;;5.25;1.15;;;5.90;99.90;;;;;;5129302;28;20047;-89
2023/01/15 00:39:19;;;;;;;6.07;1.20;;;6.00;99.90;;;;;;5095279;28;20472;-90
2023/01/15 00:41:46;;;;;;;7.70;1.15;;;5.90;99.90;;;;;;5095395;28;20047;-90
2023/01/15 00:44:13;;;;;;;10.70;1.48;;;5.90;99.90;;;;;;5128568;28;20084;-89
2023/01/15 00:46:40;;;;;;;8.35;1.65;;;6.00;99.90;;;;;;5111933;28;20444;-90
2023/01/15 00:49:07;;;;;;;7.50;1.63;;;6.00;99.90;;;;;;5111689;28;20553;-89
2023/01/15 00:51:34;;;;;;;8.45;1.60;;;6.00;99.90;;;;;;5128536;28;20040;-89
2023/01/15 00:54:01;;;;;;;12.98;1.63;;;5.90;99.90;;;;;;5111610;28;20407;-89
2023/01/15 00:56:28;;;;;;;12.85;1.70;;;5.90;99.90;;;;;;5112205;28;20043;-90
2023/01/15 00:58:55;;;;;;;8.43;1.40;;;5.90;99.90;;;;;;5111369;28;20047;-89
2023/01/15 01:01:22;;;;;;;8.07;1.70;;;5.90;99.90;;;;;;5112187;28;20036;-90
2023/01/15 01:03:51;;;;;;;9.90;1.40;;;5.90;99.90;;;;;;5111055;28;20063;-90
2023/01/15 01:06:19;;;;;;;8.18;1.52;;;5.90;99.90;;;;;;5112186;28;20040;-89
2023/01/15 01:08:47;;;;;;;11.30;1.45;;;5.90;99.90;;;;;;5111083;28;20495;-88
2023/01/15 01:11:17;;;;;;;8.10;1.30;;;6.00;99.90;;;;;;5111054;28;20036;-89
2023/01/15 01:13:45;;;;;;;8.55;1.35;;;5.90;99.90;;;;;;5111289;28;20446;-89
2023/01/15 01:16:39;;;;;;;10.05;1.48;;;5.90;99.90;;;;;;5128050;28;20534;-89
2023/01/15 01:19:10;;;;;;;9.88;1.38;;;6.00;99.90;;;;;;5092787;28;20052;-89
2023/01/15 01:21:39;;;;;;;8.82;1.40;;;5.90;99.90;;;;;;5111586;28;20054;-90
2023/01/15 01:24:07;;;;;;;11.68;1.65;;;5.90;99.90;;;;;;5111215;28;20055;-89
2023/01/15 01:26:34;;;;;;;11.95;1.50;;;6.00;99.90;;;;;;5127890;28;20395;-90
2023/01/15 01:29:01;;;;;;;12.68;1.90;;;6.00;99.90;;;;;;5144838;28;20047;-89
2023/01/15 01:31:28;;;;;;;8.73;1.45;;;6.00;99.90;;;;;;5128213;28;20032;-88
2023/01/15 01:33:56;;;;;;;8.38;1.90;;;5.90;99.90;;;;;;5111149;28;20043;-89
2023/01/15 01:36:29;;;;;;;10.52;1.17;;;5.90;99.90;;;;;;5111042;28;20047;-88
2023/01/15 01:38:56;;;;;;;10.40;2.03;;;5.90;99.90;;;;;;5127839;28;20048;-89
2023/01/15 01:41:26;;;;;;;10.00;1.95;;;5.90;99.90;;;;;;5110906;28;20040;-89
2023/01/15 01:43:58;;;;;;;11.23;2.00;;;6.00;99.90;;;;;;5127121;28;20044;-89
2023/01/15 01:46:27;;;;;;;11.80;1.65;;;5.90;99.90;;;;;;5127987;28;20076;-89
2023/01/15 01:48:59;;;;;;;13.48;1.83;;;5.90;99.90;;;;;;5110521;28;20473;-88
2023/01/15 01:51:31;;;;;;;12.70;2.88;;;5.90;99.90;;;;;;5111077;28;20044;-89
2023/01/15 01:53:59;;;;;;;12.82;1.92;;;5.90;99.90;;;;;;5110395;28;20039;-88
2023/01/15 01:56:26;;;;;;;13.88;1.90;;;5.90;99.90;;;;;;5110810;28;20040;-89
2023/01/15 01:58:54;;;;;;;9.30;1.52;;;6.00;99.90;;;;;;5110592;28;20043;-88
2023/01/15 02:01:26;;;;;;;11.40;1.80;;;5.90;99.90;;;;;;5110951;28;20050;-90
2023/01/15 02:03:53;;;;;;;14.27;1.80;;;6.00;99.90;;;;;;5110699;28;20071;-88
2023/01/15 02:06:22;;;;;;;13.35;1.75;;;5.90;99.90;;;;;;5111004;28;20044;-90
2023/01/15 02:08:49;;;;;;;7.93;1.45;;;5.90;99.90;;;;;;5110831;28;20036;-89
2023/01/15 02:11:19;;;;;;;11.57;1.50;;;5.90;99.90;;;;;;5093107;28;20039;-89
2023/01/15 02:13:52;;;;;;;12.68;1.60;;;5.90;99.90;;;;;;5110627;28;20036;-89
2023/01/15 02:16:25;;;;;;;12.20;2.08;;;5.90;99.90;;;;;;5127319;28;20040;-89
2023/01/15 02:19:15;;;;;;;12.80;1.80;;;5.90;99.90;;;;;;5127409;28;20713;-89
2023/01/15 02:22:14;;;;;;;12.05;1.70;;;5.90;99.90;;;;;;5127415;28;20040;-88
2023/01/15 02:24:59;;;;;;;8.00;1.40;;;5.90;99.90;;;;;;5110255;28;20078;-89
2023/01/15 02:27:27;;;;;;;10.73;2.05;;;5.90;99.90;;;;;;5127107;28;20824;-89
2023/01/15 02:30:23;;;;;;;10.05;1.90;;;5.90;99.90;;;;;;5110563;28;20096;-89
2023/01/15 02:33:17;;;;;;;10.65;1.52;;;5.90;99.90;;;;;;5110004;28;20047;-90
2023/01/15 02:35:49;;;;;;;12.02;1.75;;;5.90;99.90;;;;;;5110494;28;20507;-89
2023/01/15 02:38:20;;;;;;;6.70;1.50;;;5.90;99.90;;;;;;5110469;28;20047;-88
2023/01/15 02:40:51;;;;;;;11.68;1.75;;;5.90;99.90;;;;;;5114991;28;20040;-89
2023/01/15 02:43:21;;;;;;;7.25;1.20;;;5.90;99.90;;;;;;5114362;28;20173;-89
2023/01/15 02:45:50;;;;;;;11.60;1.45;;;5.90;99.90;;;;;;5114175;28;20048;-89
2023/01/15 02:48:21;;;;;;;16.77;2.42;;;5.90;99.90;;;;;;5131021;28;20036;-89
2023/01/15 02:50:52;;;;;;;10.63;1.80;;;5.90;99.90;;;;;;5148018;28;20043;-88
2023/01/15 02:53:27;;;;;;;8.45;1.70;;;5.90;99.90;;;;;;5114057;28;20055;-90
2023/01/15 02:56:01;;;;;;;13.43;1.63;;;6.00;99.90;;;;;;5147938;28;20048;-90
2023/01/15 02:58:31;;;;;;;10.30;2.13;;;5.80;99.90;;;;;;5113911;28;20126;-89
2023/01/15 03:01:00;;;;;;;14.07;1.90;;;5.80;99.90;;;;;;5130868;28;20516;-89
2023/01/15 03:03:35;;;;;;;14.40;1.90;;;5.80;99.90;;;;;;5113872;28;20040;-89
2023/01/15 03:06:36;;;;;;;16.58;2.22;;;5.90;99.90;;;;;;5130743;28;20181;-88
2023/01/15 03:09:04;;;;;;;9.85;1.77;;;5.80;99.90;;;;;;5130313;28;20040;-88
2023/01/15 03:11:36;;;;;;;8.95;1.90;;;5.80;99.90;;;;;;5096968;28;20088;-88
2023/01/15 03:14:17;;;;;;;8.77;1.40;;;5.80;99.90;;;;;;5113492;28;20063;-88
2023/01/15 03:16:46;;;;;;;12.90;1.80;;;5.80;99.90;;;;;;5113702;28;20097;-88
2023/01/15 03:19:30;;;;;;;10.98;1.60;;;5.80;99.90;;;;;;5130085;28;20088;-89
2023/01/15 03:22:18;;;;;;;10.18;1.52;;;5.80;99.90;;;;;;5130818;28;20044;-88
2023/01/15 03:24:49;;;;;;;16.25;1.55;;;5.80;99.90;;;;;;5130351;28;20408;-89
2023/01/15 03:27:16;;;;;;;7.93;1.60;;;5.80;99.90;;;;;;5113334;28;20053;-89
2023/01/15 03:29:47;;;;;;;13.07;1.80;;;5.80;99.90;;;;;;5113496;28;20040;-89
2023/01/15 03:32:16;;;;;;;9.23;1.58;;;5.80;99.90;;;;;;5113362;28;20040;-89
2023/01/15 03:34:50;;;;;;;8.13;1.60;;;5.80;99.90;;;;;;5111245;28;20040;-89
2023/01/15 03:37:19;;;;;;;11.55;1.67;;;5.80;99.90;;;;;;5098734;28;20032;-89
2023/01/15 03:39:46;;;;;;;9.48;1.40;;;5.80;99.90;;;;;;5101482;28;20048;-89
2023/01/15 03:42:25;;;;;;;14.18;1.67;;;5.80;99.90;;;;;;5092877;28;20079;-88
2023/01/15 03:45:06;;;;;;;14.20;2.03;;;5.80;99.90;;;;;;5129335;28;20626;-87
2023/01/15 03:48:04;;;;;;;14.32;1.90;;;5.80;99.90;;;;;;5118503;28;20044;-86
2023/01/15 03:50:36;;;;;;;13.32;1.50;;;5.80;99.90;;;;;;5106199;28;20058;-86
2023/01/15 03:53:21;;;;;;;4.72;1.17;;;5.80;99.90;;;;;;5113162;28;20565;-87
2023/01/15 03:55:53;;;;;;;10.63;1.65;;;5.80;99.90;;;;;;5113084;28;20039;-86
2023/01/15 03:58:28;;;;;;;12.60;1.60;;;5.80;99.90;;;;;;5112766;28;20044;-87
2023/01/15 04:01:01;;;;;;;13.05;1.75;;;5.80;99.90;;;;;;5113271;28;20063;-87
2023/01/15 04:03:29;;;;;;;9.65;1.60;;;5.80;99.90;;;;;;5146799;28;20058;-87
2023/01/15 04:05:58;;;;;;;13.63;1.75;;;5.70;99.90;;;;;;5112728;28;20102;-87
2023/01/15 04:08:28;;;;;;;19.45;2.00;;;5.70;99.90;;;;;;5112255;28;20071;-87
2023/01/15 04:10:57;;;;;;;12.13;1.77;;;5.70;99.90;;;;;;5112325;28;20404;-87
2023/01/15 04:13:24;;;;;;;8.10;1.55;;;5.70;99.90;;;;;;5129151;28;20039;-87
2023/01/15 04:15:51;;;;;;;10.80;1.95;;;5.70;99.90;;;;;;5112532;28;20047;-88
2023/01/15 04:18:18;;;;;;;10.23;1.67;;;5.60;99.90;;;;;;5112235;28;20487;-87
2023/01/15 04:20:46;;;;;;;7.47;1.58;;;5.70;99.90;;;;;;5096238;28;20047;-87
2023/01/15 04:23:13;;;;;;;11.98;2.15;;;5.70;99.90;;;;;;5111988;28;20089;-86
2023/01/15 04:25:40;;;;;;;9.88;1.80;;;5.80;99.90;;;;;;5112557;28;20380;-87
2023/01/15 04:28:08;;;;;;;10.77;1.48;;;5.70;99.90;;;;;;5112339;28;20032;-87
2023/01/15 04:30:35;;;;;;;10.52;1.92;;;5.70;99.90;;;;;;5112532;28;20085;-86
2023/01/15 04:33:02;;;;;;;9.98;1.50;;;5.70;99.90;;;;;;5095448;28;20040;-87
2023/01/15 04:35:29;;;;;;;14.35;2.28;;;5.70;99.90;;;;;;5112156;28;20044;-87
2023/01/15 04:37:58;;;;;;;11.23;1.92;;;5.70;99.90;;;;;;5112077;28;20562;-87
2023/01/15 04:45:58;;;;;;;13.07;1.67;;;5.70;99.90;;;;;;5146176;28;20506;-87
2023/01/15 04:48:25;;;;;;;10.13;2.03;;;5.60;99.90;;;;;;5111768;28;20042;-86
2023/01/15 04:50:53;;;;;;;9.00;1.35;;;5.60;99.90;;;;;;5112369;28;20101;-87
2023/01/15 04:53:20;;;;;;;7.53;1.50;;;5.60;99.90;;;;;;5111662;28;20046;-87
2023/01/15 04:55:47;;;;;;;11.68;1.73;;;5.60;99.90;;;;;;5095104;28;20039;-87
2023/01/15 04:58:14;;;;;;;10.50;1.95;;;5.70;99.90;;;;;;5111766;28;20075;-87
2023/01/15 05:00:40;;;;;;;9.75;1.67;;;5.60;99.90;;;;;;5094782;28;20040;-87
2023/01/15 05:03:07;;;;;;;9.30;1.38;;;5.60;99.90;;;;;;5094209;28;20126;-86
2023/01/15 05:05:34;;;;;;;19.33;3.17;;;5.60;99.90;;;;;;5111363;28;20043;-87
2023/01/15 05:08:00;;;;;;;9.98;1.58;;;5.60;99.90;;;;;;5128937;28;20400;-87
2023/01/15 05:10:27;;;;;;;9.45;2.25;;;5.60;99.90;;;;;;5111273;28;20040;-87
2023/01/15 05:12:54;;;;;;;10.23;1.65;;;5.50;99.90;;;;;;5111266;28;20032;-89
2023/01/15 05:15:20;;;;;;;10.10;1.92;;;5.50;99.90;;;;;;5094901;28;20434;-89
2023/01/15 05:17:47;;;;;;;8.30;1.50;;;5.50;99.90;;;;;;5094744;28;20059;-89
2023/01/15 05:20:14;;;;;;;14.13;1.60;;;5.50;99.90;;;;;;5094599;28;20090;-89
2023/01/15 05:22:41;;;;;;;10.82;1.88;;;5.40;99.90;;;;;;5111314;28;20101;-88
2023/01/15 05:25:07;;;;;;;9.45;1.67;;;5.40;99.90;;;;;;5111394;28;20110;-88
2023/01/15 05:27:34;;;;;;;10.75;2.45;;;5.40;99.90;;;;;;5111229;28;20036;-89
2023/01/15 05:30:01;;;;;;;12.48;2.05;;;5.30;99.90;;;;;;5128282;28;20075;-89
2023/01/15 05:32:29;;;;;;;9.18;2.10;;;5.30;99.90;;;;;;5127580;28;20067;-88
2023/01/15 05:34:56;;;;;;;11.05;1.80;;;5.40;99.90;;;;;;5127879;28;20047;-88
2023/01/15 05:37:22;;;;;;;7.65;1.60;;;5.40;99.90;;;;;;5110720;28;20493;-89
2023/01/15 05:39:49;;;;;;;12.93;2.55;;;5.30;99.90;;;;;;5110890;28;20569;-89
2023/01/15 05:42:16;;;;;;;7.82;1.73;;;5.30;99.90;;;;;;5094251;28;20044;-89
2023/01/15 05:44:42;;;;;;;10.05;1.75;;;5.30;99.90;;;;;;5110419;28;20056;-89
2023/01/15 05:47:09;;;;;;;15.70;2.45;;;5.30;99.90;;;;;;5110855;28;20069;-88
2023/01/15 05:49:36;;;;;;;9.57;1.70;;;5.30;99.90;;;;;;5093977;28;20036;-89
2023/01/15 05:52:03;;;;;;;7.68;1.77;;;5.20;99.90;;;;;;5110923;28;20036;-88
2023/01/15 05:54:34;;;;;;;9.52;1.50;;;5.20;99.90;;;;;;5110403;28;20484;-88
2023/01/15 05:57:02;;;;;;;7.95;1.60;;;5.20;99.90;;;;;;5110996;28;20036;-89
2023/01/15 05:59:30;;;;;;;16.20;1.83;;;5.20;99.90;;;;;;5110787;28;20488;-89
2023/01/15 06:01:57;;;;;;;14.65;1.98;;;5.20;99.90;;;;;;5127759;28;20051;-89
2023/01/15 06:04:25;;;;;;;11.18;1.73;;;5.20;99.90;;;;;;5110349;28;20081;-88
2023/01/15 06:06:53;;;;;;;17.42;2.40;;;5.20;99.90;;;;;;5093768;28;20043;-89
2023/01/15 06:09:21;;;;;;;12.38;2.25;;;5.20;99.90;;;;;;5127740;28;20036;-89
2023/01/15 06:11:49;;;;;;;14.60;2.08;;;5.10;99.90;;;;;;5110430;28;20035;-88
2023/01/15 06:14:15;;;;;;;10.70;2.20;;;5.10;99.90;;;;;;5126376;28;20412;-89
2023/01/15 06:16:42;;;;;;;8.85;1.70;;;5.10;99.90;;;;;;5093448;28;20047;-88
2023/01/15 06:19:11;;;;;;;9.95;1.48;;;5.30;99.90;;;;;;5093876;28;20038;-88
2023/01/15 06:21:38;;;;;;;9.38;1.75;;;5.00;99.90;;;;;;5126985;28;20040;-89
2023/01/15 06:24:06;;;;;;;12.27;1.63;;;5.10;99.90;;;;;;5127586;28;20036;-88
2023/01/15 06:26:33;;;;;;;9.38;1.77;;;4.90;99.90;;;;;;5110280;28;20135;-88
2023/01/15 06:29:00;;;;;;;12.82;1.92;;;5.00;99.90;;;;;;5110721;28;20075;-89
2023/01/15 06:31:26;;;;;;;11.68;2.17;;;5.00;99.90;;;;;;5110594;28;20097;-89
2023/01/15 06:33:54;;;;;;;11.27;1.75;;;5.00;99.90;;;;;;5110154;28;20043;-88
2023/01/15 06:36:22;;;;;;;15.40;1.67;;;4.90;99.90;;;;;;5127328;28;20120;-89
2023/01/15 06:38:49;;;;;;;11.57;1.77;;;4.90;99.90;;;;;;5126984;28;20052;-88
2023/01/15 06:49:38;;;;;;;14.13;2.53;;;4.90;99.90;;;;;;5126920;28;20118;-90
2023/01/15 06:52:06;;;;;;;12.55;1.58;;;4.80;99.90;;;;;;5093939;28;20071;-88
2023/01/15 06:54:33;;;;;;;10.00;1.95;;;4.80;99.90;;;;;;5109768;28;20517;-89
2023/01/15 06:57:00;;;;;;;12.95;1.58;;;4.80;99.90;;;;;;5110040;28;20131;-88
2023/01/15 06:59:26;;;;;;;12.20;2.00;;;4.70;99.90;;;;;;5126908;28;20478;-89
2023/01/15 07:01:53;;;;;;;8.63;1.67;;;4.80;99.90;;;;;;5093011;28;20043;-87
2023/01/15 07:04:20;;;;;;;14.70;2.15;;;4.80;99.90;;;;;;5109837;28;20044;-89
2023/01/15 07:06:47;;;;;;;9.02;1.80;;;4.80;99.90;;;;;;5102586;28;20115;-89
2023/01/15 07:09:13;;;;;;;9.77;1.50;;;4.80;99.90;;;;;;5104606;28;20040;-88
2023/01/15 07:11:48;;;;;;;14.80;1.60;;;4.80;99.90;;;;;;5081472;28;20037;-89
2023/01/15 07:14:26;;;;;;;8.27;1.30;;;4.80;99.90;;;;;;5108732;28;20554;-88
2023/01/15 07:16:54;;;;;;;8.57;1.63;;;4.80;99.90;;;;;;5120543;28;20470;-88
2023/01/15 07:19:21;;;;;;;11.70;1.10;;;4.80;99.90;;;;;;5095550;28;20049;-85
2023/01/15 07:21:48;;;;;;;6.93;1.13;;;4.90;99.90;;;;;;5097200;28;20492;-88
2023/01/15 07:24:15;;;;;;;10.93;1.42;;;4.80;99.90;;;;;;5097638;28;20539;-87
2023/01/15 07:26:42;;;;;;;6.95;1.17;;;5.00;99.90;;;;;;5120183;28;20066;-88
2023/01/15 07:29:09;;;;;;;9.25;1.10;;;4.80;99.90;;;;;;5093483;28;20049;-87
2023/01/15 07:31:38;;;;;;;7.55;1.00;;;4.80;99.90;;;;;;5095471;28;20086;-86
2023/01/15 07:34:05;;;;;;;8.85;1.40;;;4.80;99.90;;;;;;5096755;28;20032;-88
2023/01/15 07:36:31;;;;;;;2.63;0.80;;;4.80;99.90;;;;;;5112091;28;20117;-88
2023/01/15 07:38:58;;;;;;;8.02;1.10;;;4.80;99.90;;;;;;5108228;28;20119;-88
2023/01/15 07:49:45;;;;;;;4.18;0.90;;;4.70;99.90;;;;;;5110929;28;20040;-88
2023/01/15 07:52:16;;;;;;;7.72;1.30;;;4.70;99.90;;;;;;5096648;28;20170;-87
2023/01/15 07:54:43;;;;;;;3.50;0.50;;;4.70;99.90;;;;;;5102163;28;20048;-87
2023/01/15 07:57:19;;;;;;;1.42;0.65;;;4.70;99.90;;;;;;5092589;28;20386;-88
2023/01/15 07:59:47;;;;;;;2.33;0.50;;;4.60;99.90;;;;;;5131460;28;20457;-88
2023/01/15 08:02:13;;;;;;;6.75;1.05;;;4.70;99.90;;;;;;5106014;28;20047;-88
2023/01/15 08:04:40;;;;;;;3.38;1.00;;;4.70;99.90;;;;;;5075897;28;20040;-85
2023/01/15 08:07:07;;;;;;;2.58;0.50;;;4.70;99.90;;;;;;5091736;28;20036;-85
2023/01/15 08:09:34;;;;;;;2.05;0.50;;;5.00;99.90;;;;;;5092073;28;20067;-88
2023/01/15 08:17:34;;;;;;;3.53;0.98;;;4.80;99.90;;;;;;5109485;28;20056;-89
2023/01/15 08:20:02;;;;;;;9.48;2.15;;;4.80;99.90;;;;;;5108997;28;20040;-88
2023/01/15 08:22:29;;;;;;;5.10;0.90;;;4.80;99.90;;;;;;5105297;28;20122;-89
2023/01/15 08:24:55;;;;;;;2.17;0.75;;;4.80;99.90;;;;;;5088652;28;20123;-88
2023/01/15 08:27:22;;;;;;;3.95;0.77;;;4.80;99.90;;;;;;5093645;28;20032;-88
2023/01/15 08:29:49;;;;;;;3.33;0.70;;;4.80;99.90;;;;;;5101155;28;20040;-88
2023/01/15 08:32:16;;;;;;;5.25;0.90;;;4.90;99.90;;;;;;5100122;28;20085;-88
2023/01/15 08:34:42;;;;;;;2.85;1.13;;;4.80;99.90;;;;;;5118956;28;20043;-88
2023/01/15 08:37:09;;;;;;;5.28;0.52;;;4.80;99.90;;;;;;5100974;28;20044;-88
2023/01/15 08:39:36;;;;;;;6.85;0.93;;;4.80;99.90;;;;;;5111587;28;20051;-89
2023/01/15 08:42:03;;;;;;;1.42;0.60;;;4.80;99.90;;;;;;5094782;28;20047;-88
2023/01/15 08:44:30;;;;;;;11.65;0.98;;;4.80;99.90;;;;;;5095985;28;20544;-88
2023/01/15 08:46:56;;;;;;;5.05;0.85;;;4.80;99.90;;;;;;5085312;28;20045;-87
2023/01/15 08:49:23;;;;;;;6.00;0.90;;;5.00;99.90;;;;;;5079762;28;20036;-87
2023/01/15 08:51:50;;;;;;;5.15;0.68;;;5.20;99.90;;;;;;5106002;28;20028;-87
2023/01/15 08:54:19;;;;;;;0.65;0.52;;;5.20;99.90;;;;;;5125038;28;20051;-85
2023/01/15 08:56:47;;;;;;;3.42;0.68;;;5.30;99.90;;;;;;5094993;28;20123;-87
2023/01/15 08:59:14;;;;;;;3.83;0.68;;;5.40;99.90;;;;;;5126252;28;20040;-88
2023/01/15 09:01:41;;;;;;;5.38;0.82;;;5.40;99.90;;;;;;5094965;28;20036;-89
2023/01/15 09:04:12;;;;;;;5.93;1.17;;;5.40;99.90;;;;;;5103042;28;20067;-89
2023/01/15 09:06:39;;;;;;;5.07;1.23;;;5.70;99.90;;;;;;5097650;28;20542;-90
2023/01/15 09:09:05;;;;;;;3.25;1.20;;;5.40;99.90;;;;;;5108901;28;20036;-88
2023/01/15 09:11:33;;;;;;;6.20;1.48;;;5.30;99.90;;;;;;5097090;28;20500;-89
2023/01/15 09:13:59;;;;;;;3.58;1.00;;;5.30;99.90;;;;;;5100596;28;20044;-88
2023/01/15 09:16:26;;;;;;;2.70;0.80;;;5.20;99.90;;;;;;5087482;28;20055;-88
2023/01/15 09:18:53;;;;;;;1.33;0.63;;;5.20;99.90;;;;;;5109906;28;20127;-88
2023/01/15 09:21:20;;;;;;;2.92;1.27;;;5.30;99.90;;;;;;5082373;28;20047;-88
2023/01/15 09:23:47;;;;;;;3.97;1.33;;;5.10;99.90;;;;;;5084403;28;20036;-88
2023/01/15 09:26:33;;;;;;;1.98;0.88;;;4.90;99.90;;;;;;5119153;28;20032;-88
2023/01/15 09:29:01;;;;;;;1.10;0.60;;;4.90;99.90;;;;;;5106887;28;20036;-88
2023/01/15 09:31:28;;;;;;;0.98;0.60;;;4.80;99.90;;;;;;5110805;28;20488;-88
2023/01/15 09:33:55;;;;;;;6.22;0.73;;;4.90;99.90;;;;;;5090071;28;20043;-88
2023/01/15 09:36:31;;;;;;;6.88;1.02;;;4.80;99.90;;;;;;5090415;28;20129;-88
2023/01/15 09:38:59;;;;;;;4.75;1.02;;;4.80;99.90;;;;;;5095558;28;20040;-88
2023/01/15 09:44:48;;;;;;;5.68;0.60;;;4.70;99.90;;;;;;5121504;28;20500;-88
2023/01/15 09:47:17;;;;;;;3.25;0.55;;;4.50;99.90;;;;;;5109438;28;20512;-89
2023/01/15 09:50:03;;;;;;;2.33;1.55;;;4.50;99.90;;;;;;5105225;28;20162;-88
2023/01/15 09:53:14;;;;;;;5.90;0.55;;;4.20;99.90;;;;;;5120877;28;20392;-88
2023/01/15 09:55:47;;;;;;;1.48;0.77;;;4.10;99.90;;;;;;5079857;28;20041;-87
2023/01/15 09:58:17;;;;;;;3.65;0.73;;;4.00;99.90;;;;;;5115576;28;20047;-87
2023/01/15 10:00:47;;;;;;;0.55;0.50;;;4.10;99.90;;;;;;5109882;28;20039;-88
2023/01/15 10:04:02;;;;;;;2.92;0.30;;;4.10;99.90;;;;;;5102159;28;20097;-87
2023/01/15 10:06:44;;;;;;;3.30;0.93;;;4.10;99.90;;;;;;5013603;28;20038;-86
2023/01/15 10:09:20;;;;;;;4.30;1.10;;;4.20;99.90;;;;;;5100071;28;20049;-87
2023/01/15 10:14:49;;;;;;;3.05;0.85;;;4.30;99.90;;;;;;5128173;28;20118;-87
2023/01/15 10:17:21;;;;;;;1.08;0.75;;;4.40;99.90;;;;;;5117869;28;20040;-86
2023/01/15 10:19:48;;;;;;;2.05;0.85;;;4.50;99.90;;;;;;5130193;28;20044;-87
2023/01/15 10:22:37;;;;;;;5.43;0.80;;;4.50;99.90;;;;;;5109856;28;20038;-87
2023/01/15 10:25:12;;;;;;;1.88;0.82;;;4.50;99.90;;;;;;5121167;28;20038;-87
2023/01/15 10:27:43;;;;;;;7.00;0.75;;;4.50;99.90;;;;;;5126323;28;20043;-87
2023/01/15 10:30:20;;;;;;;3.50;0.28;;;4.60;99.90;;;;;;5093769;28;20060;-87
2023/01/15 10:32:54;;;;;;;2.35;0.65;;;4.60;99.90;;;;;;5127209;28;20032;-87
2023/01/15 10:35:27;;;;;;;1.65;0.68;;;4.60;99.90;;;;;;5112289;28;20040;-87
2023/01/15 10:38:06;;;;;;;2.65;0.68;;;4.60;99.90;;;;;;5122075;28;20044;-88
2023/01/15 10:40:52;;;;;;;1.20;0.47;;;4.70;99.90;;;;;;5126298;28;20051;-87
2023/01/15 10:43:45;;;;;;;;;;;4.80;99.90;;;;;;5110118;28;20032;-87
2023/01/15 10:46:15;;;;;;;3.25;0.70;;;4.80;99.90;;;;;;5100424;28;20277;-86
2023/01/15 10:48:56;;;;;;;5.93;0.80;;;5.00;99.90;;;;;;5113900;28;20036;-86
2023/01/15 10:51:50;;;;;;;2.13;0.55;;;5.00;99.90;;;;;;5113953;28;20449;-87
2023/01/15 10:54:23;;;;;;;7.05;1.10;;;5.00;99.90;;;;;;5120654;28;20116;-87
2023/01/15 10:57:13;;;;;;;5.07;1.02;;;5.00;99.90;;;;;;5123813;28;20123;-88
2023/01/15 10:59:52;;;;;;;6.18;0.80;;;5.00;99.90;;;;;;5110291;28;20413;-86
2023/01/15 11:02:38;;;;;;;4.97;0.63;;;5.10;99.90;;;;;;5120982;28;20051;-87
2023/01/15 11:05:10;;;;;;;3.25;0.50;;;5.20;99.90;;;;;;5110478;28;20420;-86
2023/01/15 11:07:44;;;;;;;2.72;1.00;;;5.20;99.90;;;;;;5114494;28;20040;-86
2023/01/15 11:10:16;;;;;;;1.15;0.57;;;5.30;99.90;;;;;;5109567;28;20512;-86
2023/01/15 11:21:14;;;;;;;0.40;0.40;;;5.10;99.90;;;;;;5131306;27;20346;-86
2023/01/15 11:23:41;;;;;;;0.60;0.40;;;5.00;99.90;;;;;;5129888;28;20093;-86
2023/01/15 11:26:09;;;;;;;3.33;1.40;;;5.00;99.90;;;;;;5100670;28;20037;-87
2023/01/15 11:28:42;;;;;;;2.17;0.82;;;4.90;99.90;;;;;;5119439;28;20068;-86
2023/01/15 11:31:10;;;;;;;1.35;0.50;;;5.00;99.90;;;;;;5120455;28;20485;-87
2023/01/15 11:33:38;;;;;;;4.15;1.00;;;4.90;99.90;;;;;;5101089;28;20070;-87
2023/01/15 11:36:20;;;;;;;5.13;1.25;;;4.90;99.90;;;;;;5129263;28;20036;-86
2023/01/15 11:38:49;;;;;;;4.55;1.20;;;5.00;99.90;;;;;;5112737;28;20071;-86
2023/01/15 11:50:42;;;;;;;7.07;1.00;;;5.00;99.90;;;;;;5112812;28;20383;-86
2023/01/15 11:52:42;;;;;;;2.85;0.95;;;5.30;99.90;;;;;;5129136;28;20044;-86
2023/01/15 11:55:16;;;;;;;11.27;1.27;;;5.40;99.90;;;;;;5092027;28;20059;-85
2023/01/15 11:57:44;;;;;;;3.65;0.82;;;5.50;99.90;;;;;;5092424;28;20044;-86
2023/01/15 12:00:36;;;;;;;3.05;0.85;;;5.60;99.90;;;;;;5075155;28;20050;-86
2023/01/15 12:03:11;;;;;;;4.40;1.00;;;5.80;99.90;;;;;;5092379;28;20051;-82
2023/01/15 12:05:45;;;;;;;2.60;0.45;;;5.80;99.90;;;;;;5092535;28;20051;-86
2023/01/15 12:08:37;;;;;;;12.35;1.20;;;5.90;99.90;;;;;;5091881;28;20036;-86
2023/01/15 12:11:18;;;;;;;1.80;0.52;;;5.90;99.90;;;;;;5092365;28;20086;-86
2023/01/15 12:14:18;;;;;;;4.18;0.63;;;5.90;99.90;;;;;;5093696;28;20051;-86
2023/01/15 12:17:20;;;;;;;4.70;0.50;;;6.00;99.90;;;;;;5112908;28;20523;-86
2023/01/15 12:19:53;;;;;;;4.57;0.73;;;6.00;99.90;;;;;;5084298;28;20504;-85
2023/01/15 12:22:26;;;;;;;5.80;0.98;;;6.10;99.90;;;;;;5110585;28;20102;-86
2023/01/15 12:25:15;;;;;;;6.80;0.57;;;6.20;99.90;;;;;;5122854;28;20048;-85
2023/01/15 12:27:56;;;;;;;2.70;0.65;;;6.20;99.90;;;;;;5128698;28;20040;-84
2023/01/15 12:30:38;;;;;;;1.17;0.63;;;6.20;99.90;;;;;;5110978;28;20125;-86
2023/01/15 12:33:19;;;;;;;7.68;1.08;;;6.10;99.90;;;;;;5116025;28;20512;-87
2023/01/15 12:35:55;;;;;;;3.83;0.73;;;6.10;99.90;;;;;;5108041;28;20546;-86
2023/01/15 12:38:36;;;;;;;5.80;0.75;;;6.10;99.90;;;;;;5091594;28;20041;-86
2023/01/15 12:41:13;;;;;;;2.38;0.82;;;6.10;99.90;;;;;;5091510;28;20051;-86
2023/01/15 12:46:33;;;;;;;6.18;0.90;;;6.10;99.90;;;;;;5127754;28;20044;-86
2023/01/15 12:49:29;;;;;;;4.82;0.80;;;6.20;99.90;;;;;;5111756;28;20040;-85
2023/01/15 12:52:13;;;;;;;7.37;1.40;;;6.20;99.90;;;;;;5111872;28;20086;-86
2023/01/15 12:54:50;;;;;;;5.32;1.08;;;6.10;99.90;;;;;;5111440;28;20086;-86
2023/01/15 12:57:40;;;;;;;5.20;1.10;;;6.10;99.90;;;;;;5109750;28;20055;-86
2023/01/15 13:00:31;;;;;;;6.38;1.40;;;6.10;99.90;;;;;;5110290;28;20420;-87
2023/01/15 13:03:20;;;;;;;1.77;0.68;;;6.00;99.90;;;;;;5110609;28;20036;-86
2023/01/15 13:06:08;;;;;;;4.05;1.13;;;5.90;99.90;;;;;;5111347;28;20040;-86
2023/01/15 13:09:13;;;;;;;3.60;0.95;;;5.90;99.90;;;;;;5111115;28;20480;-86
2023/01/15 13:11:40;;;;;;;3.65;0.73;;;5.90;99.90;;;;;;5145345;28;20044;-86
2023/01/15 13:14:16;;;;;;;6.28;1.25;;;5.80;99.90;;;;;;5109472;28;20075;-85
2023/01/15 13:17:16;;;;;;;2.92;0.80;;;5.90;99.90;;;;;;5107797;28;20047;-86
2023/01/15 13:19:58;;;;;;;4.22;0.85;;;5.90;99.90;;;;;;5117621;28;20048;-85
2023/01/15 13:22:29;;;;;;;7.72;0.90;;;5.90;99.90;;;;;;5121213;28;20041;-86
2023/01/15 13:25:17;;;;;;;4.78;1.55;;;5.90;99.90;;;;;;5106986;28;20040;-86
2023/01/15 13:28:02;;;;;;;3.33;1.10;;;5.80;99.90;;;;;;5107927;28;20044;-86
2023/01/15 13:31:04;;;;;;;4.03;0.55;;;5.60;99.90;;;;;;5120088;28;20071;-86
2023/01/15 13:33:42;;;;;;;2.40;1.00;;;5.10;99.90;;;;;;5105381;28;20086;-86
2023/01/15 13:36:27;;;;;;;4.95;1.15;;;4.90;99.90;;;;;;5107404;28;20045;-85
2023/01/15 13:38:58;;;;;;;3.30;0.90;;;4.80;99.90;;;;;;5123936;28;20135;-85
2023/01/15 13:44:22;;;;;;;3.83;0.73;;;4.70;99.90;;;;;;5139161;28;20052;-85
2023/01/15 13:47:06;;;;;;;1.25;0.30;;;4.70;99.90;;;;;;5127031;28;20100;-85
2023/01/15 13:49:58;;;;;;;4.65;0.60;;;4.70;99.90;;;;;;5124672;28;20036;-85
2023/01/15 13:52:34;;;;;;;0.88;0.50;;;4.70;99.90;;;;;;5098976;28;20116;-86
2023/01/15 13:55:18;;;;;;;4.13;0.60;;;4.70;99.90;;;;;;5123487;28;20075;-86
2023/01/15 13:57:47;;;;;;;2.85;0.68;;;4.70;99.90;;;;;;5107170;28;20471;-86
2023/01/15 14:00:31;;;;;;;1.30;0.60;;;4.70;99.90;;;;;;5087839;28;20048;-86
2023/01/15 14:03:00;;;;;;;0.77;0.30;;;4.70;99.90;;;;;;5109976;28;20075;-86
2023/01/15 14:05:30;;;;;;;0.73;0.30;;;4.70;99.90;;;;;;5094152;28;20032;-87
2023/01/15 14:08:00;;;;;;;1.17;0.50;;;4.70;99.90;;;;;;5121496;28;20036;-87
2023/01/15 14:10:30;;;;;;;3.20;0.60;;;4.80;99.90;;;;;;5118384;28;20039;-86
2023/01/15 14:13:29;;;;;;;2.75;0.80;;;5.00;99.90;;;;;;5125639;28;20066;-86
2023/01/15 14:16:18;;;;;;;4.03;0.40;;;4.80;99.90;;;;;;5115886;28;20040;-87
2023/01/15 14:19:03;;;;;;;1.27;0.50;;;4.80;99.90;;;;;;5113725;28;20044;-87
2023/01/15 14:21:51;;;;;;;1.08;0.35;;;4.80;99.90;;;;;;5106625;28;20055;-86
2023/01/15 14:24:51;;;;;;;2.95;0.60;;;4.80;99.90;;;;;;5109125;28;20132;-87